sensor_id;sensor_type;location;lat;lon;timestamp;P1;durP1;ratioP1;P2;durP2;ratioP2
19810;SDS011;10065;49.632;8.346;2022-11-15T00:00:59;12.27;;;7.13;;
19810;SDS011;10065;49.632;8.346;2022-11-15T00:03:28;12.53;;;7.00;;
19810;SDS011;10065;49.632;8.346;2022-11-15T00:06:00;9.87;;;6.33;;
19810;SDS011;10065;49.632;8.346;2022-11-15T00:08:29;12.30;;;6.50;;
19810;SDS011;10065;49.632;8.346;2022-11-15T00:10:58;12.70;;;6.80;;
19810;SDS011;10065;49.632;8.346;2022-11-15T00:13:26;11.23;;;6.67;;
19810;SDS011;10065;49.632;8.346;2022-11-15T00:15:56;10.83;;;6.13;;
19810;SDS011;10065;49.632;8.346;2022-11-15T00:18:25;10.13;;;6.77;;
19810;SDS011;10065;49.632;8.346;2022-11-15T00:20:55;13.63;;;6.33;;
19810;SDS011;10065;49.632;8.346;2022-11-15T00:23:23;11.27;;;5.87;;
19810;SDS011;10065;49.632;8.346;2022-11-15T00:25:55;8.80;;;5.63;;
19810;SDS011;10065;49.632;8.346;2022-11-15T00:28:24;12.97;;;6.50;;
19810;SDS011;10065;49.632;8.346;2022-11-15T00:30:52;10.93;;;6.37;;
19810;SDS011;10065;49.632;8.346;2022-11-15T00:33:19;11.43;;;6.63;;
19810;SDS011;10065;49.632;8.346;2022-11-15T00:35:47;10.77;;;6.87;;
19810;SDS011;10065;49.632;8.346;2022-11-15T00:38:16;10.23;;;6.47;;
19810;SDS011;10065;49.632;8.346;2022-11-15T00:40:44;12.77;;;6.40;;
19810;SDS011;10065;49.632;8.346;2022-11-15T00:43:11;12.07;;;6.40;;
19810;SDS011;10065;49.632;8.346;2022-11-15T00:45:39;13.67;;;6.60;;
19810;SDS011;10065;49.632;8.346;2022-11-15T00:48:07;10.77;;;7.23;;
19810;SDS011;10065;49.632;8.346;2022-11-15T00:50:34;13.50;;;6.87;;
19810;SDS011;10065;49.632;8.346;2022-11-15T00:53:02;11.97;;;6.23;;
19810;SDS011;10065;49.632;8.346;2022-11-15T00:55:31;13.10;;;5.87;;
19810;SDS011;10065;49.632;8.346;2022-11-15T00:57:59;10.87;;;6.43;;
19810;SDS011;10065;49.632;8.346;2022-11-15T01:00:26;10.27;;;6.07;;
19810;SDS011;10065;49.632;8.346;2022-11-15T01:02:54;11.43;;;6.23;;
19810;SDS011;10065;49.632;8.346;2022-11-15T01:05:22;9.57;;;6.23;;
19810;SDS011;10065;49.632;8.346;2022-11-15T01:07:51;11.80;;;6.47;;
19810;SDS011;10065;49.632;8.346;2022-11-15T01:10:19;10.37;;;6.43;;
19810;SDS011;10065;49.632;8.346;2022-11-15T01:12:48;10.53;;;6.30;;
19810;SDS011;10065;49.632;8.346;2022-11-15T01:15:16;10.43;;;6.33;;
19810;SDS011;10065;49.632;8.346;2022-11-15T01:17:44;16.47;;;6.40;;
19810;SDS011;10065;49.632;8.346;2022-11-15T01:20:12;11.57;;;6.50;;
19810;SDS011;10065;49.632;8.346;2022-11-15T01:22:39;11.83;;;5.90;;
19810;SDS011;10065;49.632;8.346;2022-11-15T01:25:07;10.27;;;6.60;;
19810;SDS011;10065;49.632;8.346;2022-11-15T01:27:35;9.07;;;6.23;;
19810;SDS011;10065;49.632;8.346;2022-11-15T01:30:04;10.70;;;6.40;;
19810;SDS011;10065;49.632;8.346;2022-11-15T01:32:34;12.70;;;6.43;;
19810;SDS011;10065;49.632;8.346;2022-11-15T01:35:02;9.87;;;6.27;;
19810;SDS011;10065;49.632;8.346;2022-11-15T01:37:30;12.17;;;6.20;;
19810;SDS011;10065;49.632;8.346;2022-11-15T01:39:57;11.80;;;6.30;;
19810;SDS011;10065;49.632;8.346;2022-11-15T01:42:25;12.57;;;6.50;;
19810;SDS011;10065;49.632;8.346;2022-11-15T01:44:52;10.30;;;5.97;;
19810;SDS011;10065;49.632;8.346;2022-11-15T01:47:22;9.53;;;6.17;;
19810;SDS011;10065;49.632;8.346;2022-11-15T01:49:54;11.40;;;5.93;;
19810;SDS011;10065;49.632;8.346;2022-11-15T01:52:25;10.97;;;6.33;;
19810;SDS011;10065;49.632;8.346;2022-11-15T01:54:56;12.17;;;6.50;;
19810;SDS011;10065;49.632;8.346;2022-11-15T01:57:29;13.00;;;6.47;;
19810;SDS011;10065;49.632;8.346;2022-11-15T01:59:57;9.20;;;6.30;;
19810;SDS011;10065;49.632;8.346;2022-11-15T02:02:28;9.37;;;5.97;;
19810;SDS011;10065;49.632;8.346;2022-11-15T02:04:56;11.03;;;6.43;;
19810;SDS011;10065;49.632;8.346;2022-11-15T02:07:24;10.63;;;6.00;;
19810;SDS011;10065;49.632;8.346;2022-11-15T02:09:52;12.37;;;6.47;;
19810;SDS011;10065;49.632;8.346;2022-11-15T02:12:21;10.03;;;6.27;;
19810;SDS011;10065;49.632;8.346;2022-11-15T02:14:51;9.83;;;5.77;;
19810;SDS011;10065;49.632;8.346;2022-11-15T02:17:28;9.47;;;5.63;;
19810;SDS011;10065;49.632;8.346;2022-11-15T02:20:13;11.37;;;6.40;;
19810;SDS011;10065;49.632;8.346;2022-11-15T02:29:20;10.27;;;5.87;;
19810;SDS011;10065;49.632;8.346;2022-11-15T02:32:02;11.00;;;5.47;;
19810;SDS011;10065;49.632;8.346;2022-11-15T02:34:39;9.27;;;5.63;;
19810;SDS011;10065;49.632;8.346;2022-11-15T02:37:19;10.03;;;5.63;;
19810;SDS011;10065;49.632;8.346;2022-11-15T02:39:54;11.20;;;5.37;;
19810;SDS011;10065;49.632;8.346;2022-11-15T02:42:30;9.23;;;5.53;;
19810;SDS011;10065;49.632;8.346;2022-11-15T02:45:19;8.47;;;4.80;;
19810;SDS011;10065;49.632;8.346;2022-11-15T02:47:54;11.67;;;5.13;;
19810;SDS011;10065;49.632;8.346;2022-11-15T02:50:25;9.77;;;5.40;;
19810;SDS011;10065;49.632;8.346;2022-11-15T02:52:56;8.63;;;5.63;;
19810;SDS011;10065;49.632;8.346;2022-11-15T02:55:28;8.63;;;5.50;;
19810;SDS011;10065;49.632;8.346;2022-11-15T02:58:01;10.37;;;5.97;;
19810;SDS011;10065;49.632;8.346;2022-11-15T03:00:51;8.43;;;5.27;;
19810;SDS011;10065;49.632;8.346;2022-11-15T03:03:38;8.30;;;5.47;;
19810;SDS011;10065;49.632;8.346;2022-11-15T03:06:15;7.50;;;4.40;;
19810;SDS011;10065;49.632;8.346;2022-11-15T03:08:57;8.57;;;5.17;;
19810;SDS011;10065;49.632;8.346;2022-11-15T03:11:31;9.33;;;5.30;;
19810;SDS011;10065;49.632;8.346;2022-11-15T03:14:06;7.43;;;5.03;;
19810;SDS011;10065;49.632;8.346;2022-11-15T03:16:43;8.03;;;4.73;;
19810;SDS011;10065;49.632;8.346;2022-11-15T03:19:19;12.13;;;5.87;;
19810;SDS011;10065;49.632;8.346;2022-11-15T03:21:53;9.53;;;5.27;;
19810;SDS011;10065;49.632;8.346;2022-11-15T03:24:25;14.03;;;7.37;;
19810;SDS011;10065;49.632;8.346;2022-11-15T03:26:56;10.43;;;5.87;;
19810;SDS011;10065;49.632;8.346;2022-11-15T03:29:27;10.63;;;5.73;;
19810;SDS011;10065;49.632;8.346;2022-11-15T03:32:00;9.83;;;5.67;;
19810;SDS011;10065;49.632;8.346;2022-11-15T03:34:33;10.07;;;5.33;;
19810;SDS011;10065;49.632;8.346;2022-11-15T03:37:04;9.17;;;5.50;;
19810;SDS011;10065;49.632;8.346;2022-11-15T03:39:33;10.40;;;4.63;;
19810;SDS011;10065;49.632;8.346;2022-11-15T03:42:04;10.60;;;5.60;;
19810;SDS011;10065;49.632;8.346;2022-11-15T03:44:40;9.50;;;5.90;;
19810;SDS011;10065;49.632;8.346;2022-11-15T03:47:13;9.40;;;5.10;;
19810;SDS011;10065;49.632;8.346;2022-11-15T03:49:49;11.43;;;4.83;;
19810;SDS011;10065;49.632;8.346;2022-11-15T03:52:19;8.10;;;5.00;;
19810;SDS011;10065;49.632;8.346;2022-11-15T03:54:52;9.93;;;5.30;;
19810;SDS011;10065;49.632;8.346;2022-11-15T03:57:21;11.50;;;5.23;;
19810;SDS011;10065;49.632;8.346;2022-11-15T03:59:49;9.40;;;5.23;;
19810;SDS011;10065;49.632;8.346;2022-11-15T04:02:17;9.90;;;5.27;;
19810;SDS011;10065;49.632;8.346;2022-11-15T04:04:44;9.77;;;5.03;;
19810;SDS011;10065;49.632;8.346;2022-11-15T04:07:13;11.57;;;4.53;;
19810;SDS011;10065;49.632;8.346;2022-11-15T04:09:41;9.87;;;4.53;;
19810;SDS011;10065;49.632;8.346;2022-11-15T04:12:23;10.43;;;5.17;;
19810;SDS011;10065;49.632;8.346;2022-11-15T04:14:58;7.90;;;4.60;;
19810;SDS011;10065;49.632;8.346;2022-11-15T04:17:37;10.63;;;4.60;;
19810;SDS011;10065;49.632;8.346;2022-11-15T04:20:07;8.57;;;4.50;;
19810;SDS011;10065;49.632;8.346;2022-11-15T04:22:57;9.17;;;4.60;;
19810;SDS011;10065;49.632;8.346;2022-11-15T04:25:43;9.40;;;4.47;;
19810;SDS011;10065;49.632;8.346;2022-11-15T04:28:11;8.03;;;4.43;;
19810;SDS011;10065;49.632;8.346;2022-11-15T04:30:39;10.07;;;4.70;;
19810;SDS011;10065;49.632;8.346;2022-11-15T04:33:12;8.70;;;4.63;;
19810;SDS011;10065;49.632;8.346;2022-11-15T04:35:39;7.43;;;4.10;;
19810;SDS011;10065;49.632;8.346;2022-11-15T04:38:09;7.40;;;3.47;;
19810;SDS011;10065;49.632;8.346;2022-11-15T04:40:37;9.90;;;5.10;;
19810;SDS011;10065;49.632;8.346;2022-11-15T04:43:07;10.30;;;4.70;;
19810;SDS011;10065;49.632;8.346;2022-11-15T04:45:34;7.83;;;4.10;;
19810;SDS011;10065;49.632;8.346;2022-11-15T04:48:02;9.77;;;5.00;;
19810;SDS011;10065;49.632;8.346;2022-11-15T04:50:30;8.83;;;4.47;;
19810;SDS011;10065;49.632;8.346;2022-11-15T04:52:58;10.00;;;4.67;;
19810;SDS011;10065;49.632;8.346;2022-11-15T04:55:27;6.13;;;3.87;;
19810;SDS011;10065;49.632;8.346;2022-11-15T04:57:57;8.13;;;4.57;;
19810;SDS011;10065;49.632;8.346;2022-11-15T05:00:27;7.30;;;4.33;;
19810;SDS011;10065;49.632;8.346;2022-11-15T05:02:55;7.80;;;4.57;;
19810;SDS011;10065;49.632;8.346;2022-11-15T05:05:41;15.40;;;4.97;;
19810;SDS011;10065;49.632;8.346;2022-11-15T05:08:09;13.63;;;4.83;;
19810;SDS011;10065;49.632;8.346;2022-11-15T05:10:38;14.37;;;4.90;;
19810;SDS011;10065;49.632;8.346;2022-11-15T05:13:05;15.67;;;5.13;;
19810;SDS011;10065;49.632;8.346;2022-11-15T05:15:33;18.07;;;4.60;;
19810;SDS011;10065;49.632;8.346;2022-11-15T05:18:01;13.60;;;4.77;;
19810;SDS011;10065;49.632;8.346;2022-11-15T05:20:28;15.10;;;4.83;;
19810;SDS011;10065;49.632;8.346;2022-11-15T05:22:56;12.10;;;5.43;;
19810;SDS011;10065;49.632;8.346;2022-11-15T05:25:24;10.30;;;4.43;;
19810;SDS011;10065;49.632;8.346;2022-11-15T05:27:54;11.87;;;5.23;;
19810;SDS011;10065;49.632;8.346;2022-11-15T05:30:22;9.60;;;4.87;;
19810;SDS011;10065;49.632;8.346;2022-11-15T05:32:50;9.40;;;5.23;;
19810;SDS011;10065;49.632;8.346;2022-11-15T05:35:18;9.13;;;4.53;;
19810;SDS011;10065;49.632;8.346;2022-11-15T05:37:52;9.27;;;5.13;;
19810;SDS011;10065;49.632;8.346;2022-11-15T05:40:19;10.53;;;5.27;;
19810;SDS011;10065;49.632;8.346;2022-11-15T05:42:47;9.57;;;5.00;;
19810;SDS011;10065;49.632;8.346;2022-11-15T05:45:17;11.00;;;4.90;;
19810;SDS011;10065;49.632;8.346;2022-11-15T05:47:52;8.53;;;5.50;;
19810;SDS011;10065;49.632;8.346;2022-11-15T05:50:21;9.37;;;5.33;;
19810;SDS011;10065;49.632;8.346;2022-11-15T05:52:50;8.43;;;4.90;;
19810;SDS011;10065;49.632;8.346;2022-11-15T05:55:18;11.70;;;5.40;;
19810;SDS011;10065;49.632;8.346;2022-11-15T05:57:46;14.27;;;5.30;;
19810;SDS011;10065;49.632;8.346;2022-11-15T06:00:14;10.43;;;5.60;;
19810;SDS011;10065;49.632;8.346;2022-11-15T06:02:43;12.73;;;5.67;;
19810;SDS011;10065;49.632;8.346;2022-11-15T06:05:11;9.37;;;5.23;;
19810;SDS011;10065;49.632;8.346;2022-11-15T06:07:39;9.60;;;5.70;;
19810;SDS011;10065;49.632;8.346;2022-11-15T06:10:07;12.77;;;5.20;;
19810;SDS011;10065;49.632;8.346;2022-11-15T06:12:35;9.73;;;5.80;;
19810;SDS011;10065;49.632;8.346;2022-11-15T06:15:03;9.73;;;5.50;;
19810;SDS011;10065;49.632;8.346;2022-11-15T06:17:31;9.50;;;4.60;;
19810;SDS011;10065;49.632;8.346;2022-11-15T06:20:00;9.63;;;5.50;;
19810;SDS011;10065;49.632;8.346;2022-11-15T06:22:28;11.73;;;5.20;;
19810;SDS011;10065;49.632;8.346;2022-11-15T06:24:55;10.73;;;4.97;;
19810;SDS011;10065;49.632;8.346;2022-11-15T06:27:30;11.63;;;5.40;;
19810;SDS011;10065;49.632;8.346;2022-11-15T06:29:57;9.63;;;5.07;;
19810;SDS011;10065;49.632;8.346;2022-11-15T06:32:25;10.40;;;5.30;;
19810;SDS011;10065;49.632;8.346;2022-11-15T06:34:53;10.20;;;5.60;;
19810;SDS011;10065;49.632;8.346;2022-11-15T06:37:22;12.10;;;5.70;;
19810;SDS011;10065;49.632;8.346;2022-11-15T06:39:49;10.80;;;6.03;;
19810;SDS011;10065;49.632;8.346;2022-11-15T06:42:17;16.13;;;6.57;;
19810;SDS011;10065;49.632;8.346;2022-11-15T06:44:45;12.10;;;6.63;;
19810;SDS011;10065;49.632;8.346;2022-11-15T06:47:12;10.03;;;5.93;;
19810;SDS011;10065;49.632;8.346;2022-11-15T06:49:40;8.80;;;5.43;;
19810;SDS011;10065;49.632;8.346;2022-11-15T06:52:08;9.00;;;5.70;;
19810;SDS011;10065;49.632;8.346;2022-11-15T06:54:36;9.93;;;5.67;;
19810;SDS011;10065;49.632;8.346;2022-11-15T06:57:04;9.27;;;5.63;;
19810;SDS011;10065;49.632;8.346;2022-11-15T06:59:32;10.47;;;6.37;;
19810;SDS011;10065;49.632;8.346;2022-11-15T07:02:05;11.60;;;5.93;;
19810;SDS011;10065;49.632;8.346;2022-11-15T07:04:33;14.03;;;6.03;;
19810;SDS011;10065;49.632;8.346;2022-11-15T07:07:02;12.70;;;5.90;;
19810;SDS011;10065;49.632;8.346;2022-11-15T07:09:30;10.43;;;5.90;;
19810;SDS011;10065;49.632;8.346;2022-11-15T07:11:59;9.23;;;5.57;;
19810;SDS011;10065;49.632;8.346;2022-11-15T07:14:33;10.73;;;6.47;;
19810;SDS011;10065;49.632;8.346;2022-11-15T07:17:02;11.77;;;5.57;;
19810;SDS011;10065;49.632;8.346;2022-11-15T07:19:31;9.30;;;5.50;;
19810;SDS011;10065;49.632;8.346;2022-11-15T07:21:58;15.37;;;6.57;;
19810;SDS011;10065;49.632;8.346;2022-11-15T07:24:26;8.93;;;5.60;;
19810;SDS011;10065;49.632;8.346;2022-11-15T07:26:54;12.77;;;6.07;;
19810;SDS011;10065;49.632;8.346;2022-11-15T07:29:23;10.80;;;6.30;;
19810;SDS011;10065;49.632;8.346;2022-11-15T07:31:51;14.80;;;6.43;;
19810;SDS011;10065;49.632;8.346;2022-11-15T07:34:19;8.93;;;5.80;;
19810;SDS011;10065;49.632;8.346;2022-11-15T07:36:47;12.57;;;6.37;;
19810;SDS011;10065;49.632;8.346;2022-11-15T07:39:15;13.90;;;6.55;;
19810;SDS011;10065;49.632;8.346;2022-11-15T07:41:43;12.90;;;6.63;;
19810;SDS011;10065;49.632;8.346;2022-11-15T07:44:12;9.83;;;5.70;;
19810;SDS011;10065;49.632;8.346;2022-11-15T07:46:41;12.33;;;6.37;;
19810;SDS011;10065;49.632;8.346;2022-11-15T07:49:09;9.97;;;5.90;;
19810;SDS011;10065;49.632;8.346;2022-11-15T07:51:36;10.60;;;5.43;;
19810;SDS011;10065;49.632;8.346;2022-11-15T07:54:04;11.43;;;5.60;;
19810;SDS011;10065;49.632;8.346;2022-11-15T07:56:32;9.40;;;5.87;;
19810;SDS011;10065;49.632;8.346;2022-11-15T07:58:59;9.93;;;5.77;;
19810;SDS011;10065;49.632;8.346;2022-11-15T08:01:27;8.00;;;4.83;;
19810;SDS011;10065;49.632;8.346;2022-11-15T08:03:56;11.57;;;5.43;;
19810;SDS011;10065;49.632;8.346;2022-11-15T08:06:24;8.27;;;4.73;;
19810;SDS011;10065;49.632;8.346;2022-11-15T08:08:52;11.23;;;5.57;;
19810;SDS011;10065;49.632;8.346;2022-11-15T08:11:19;10.07;;;5.57;;
19810;SDS011;10065;49.632;8.346;2022-11-15T08:13:47;7.93;;;5.00;;
19810;SDS011;10065;49.632;8.346;2022-11-15T08:16:15;8.83;;;5.33;;
19810;SDS011;10065;49.632;8.346;2022-11-15T08:18:42;10.47;;;5.57;;
19810;SDS011;10065;49.632;8.346;2022-11-15T08:21:17;14.43;;;5.43;;
19810;SDS011;10065;49.632;8.346;2022-11-15T08:23:46;12.73;;;5.47;;
19810;SDS011;10065;49.632;8.346;2022-11-15T08:26:14;15.27;;;5.57;;
19810;SDS011;10065;49.632;8.346;2022-11-15T08:28:42;11.97;;;5.33;;
19810;SDS011;10065;49.632;8.346;2022-11-15T08:31:12;10.73;;;5.60;;
19810;SDS011;10065;49.632;8.346;2022-11-15T08:33:43;10.10;;;5.57;;
19810;SDS011;10065;49.632;8.346;2022-11-15T08:36:13;8.33;;;5.43;;
19810;SDS011;10065;49.632;8.346;2022-11-15T08:38:42;11.70;;;5.60;;
19810;SDS011;10065;49.632;8.346;2022-11-15T08:41:11;13.73;;;5.40;;
19810;SDS011;10065;49.632;8.346;2022-11-15T08:43:41;14.93;;;5.30;;
19810;SDS011;10065;49.632;8.346;2022-11-15T08:46:08;10.27;;;5.80;;
19810;SDS011;10065;49.632;8.346;2022-11-15T08:48:39;10.87;;;5.77;;
19810;SDS011;10065;49.632;8.346;2022-11-15T08:51:07;7.50;;;4.87;;
19810;SDS011;10065;49.632;8.346;2022-11-15T08:53:36;9.17;;;5.63;;
19810;SDS011;10065;49.632;8.346;2022-11-15T08:56:06;9.37;;;5.73;;
19810;SDS011;10065;49.632;8.346;2022-11-15T08:58:34;10.20;;;5.30;;
19810;SDS011;10065;49.632;8.346;2022-11-15T09:01:02;10.03;;;5.77;;
19810;SDS011;10065;49.632;8.346;2022-11-15T09:03:31;11.60;;;6.13;;
19810;SDS011;10065;49.632;8.346;2022-11-15T09:05:59;10.50;;;5.50;;
19810;SDS011;10065;49.632;8.346;2022-11-15T09:08:29;12.30;;;6.20;;
19810;SDS011;10065;49.632;8.346;2022-11-15T09:11:14;14.40;;;6.10;;
19810;SDS011;10065;49.632;8.346;2022-11-15T09:13:42;13.50;;;6.80;;
19810;SDS011;10065;49.632;8.346;2022-11-15T09:16:10;12.73;;;6.30;;
19810;SDS011;10065;49.632;8.346;2022-11-15T09:18:38;13.33;;;6.83;;
19810;SDS011;10065;49.632;8.346;2022-11-15T09:21:06;12.57;;;6.20;;
19810;SDS011;10065;49.632;8.346;2022-11-15T09:23:34;9.03;;;5.37;;
19810;SDS011;10065;49.632;8.346;2022-11-15T09:26:03;12.80;;;6.33;;
19810;SDS011;10065;49.632;8.346;2022-11-15T09:28:33;12.53;;;6.57;;
19810;SDS011;10065;49.632;8.346;2022-11-15T09:31:02;17.33;;;7.03;;
19810;SDS011;10065;49.632;8.346;2022-11-15T09:33:31;12.03;;;6.60;;
19810;SDS011;10065;49.632;8.346;2022-11-15T09:36:00;13.43;;;6.33;;
19810;SDS011;10065;49.632;8.346;2022-11-15T09:38:28;24.00;;;6.80;;
19810;SDS011;10065;49.632;8.346;2022-11-15T09:41:08;12.10;;;7.10;;
19810;SDS011;10065;49.632;8.346;2022-11-15T09:43:50;14.93;;;6.97;;
19810;SDS011;10065;49.632;8.346;2022-11-15T09:46:30;13.40;;;6.40;;
19810;SDS011;10065;49.632;8.346;2022-11-15T09:49:03;12.13;;;6.60;;
19810;SDS011;10065;49.632;8.346;2022-11-15T09:51:32;13.83;;;6.93;;
19810;SDS011;10065;49.632;8.346;2022-11-15T09:54:03;12.17;;;5.67;;
19810;SDS011;10065;49.632;8.346;2022-11-15T09:56:56;13.10;;;6.97;;
19810;SDS011;10065;49.632;8.346;2022-11-15T09:59:46;11.17;;;6.23;;
19810;SDS011;10065;49.632;8.346;2022-11-15T10:02:36;14.43;;;7.33;;
19810;SDS011;10065;49.632;8.346;2022-11-15T10:05:16;12.00;;;6.60;;
19810;SDS011;10065;49.632;8.346;2022-11-15T10:07:48;19.30;;;7.73;;
19810;SDS011;10065;49.632;8.346;2022-11-15T10:10:23;11.77;;;6.83;;
19810;SDS011;10065;49.632;8.346;2022-11-15T10:12:57;12.77;;;6.73;;
19810;SDS011;10065;49.632;8.346;2022-11-15T10:15:27;9.20;;;5.93;;
19810;SDS011;10065;49.632;8.346;2022-11-15T10:18:05;12.87;;;5.90;;
19810;SDS011;10065;49.632;8.346;2022-11-15T10:20:40;9.13;;;5.37;;
19810;SDS011;10065;49.632;8.346;2022-11-15T10:23:14;10.73;;;6.30;;
19810;SDS011;10065;49.632;8.346;2022-11-15T10:25:44;13.50;;;6.87;;
19810;SDS011;10065;49.632;8.346;2022-11-15T10:28:14;11.53;;;6.50;;
19810;SDS011;10065;49.632;8.346;2022-11-15T10:30:45;13.67;;;6.60;;
19810;SDS011;10065;49.632;8.346;2022-11-15T10:33:19;12.07;;;6.20;;
19810;SDS011;10065;49.632;8.346;2022-11-15T10:38:51;14.50;;;6.90;;
19810;SDS011;10065;49.632;8.346;2022-11-15T10:41:29;14.47;;;6.57;;
19810;SDS011;10065;49.632;8.346;2022-11-15T10:44:06;10.60;;;5.77;;
19810;SDS011;10065;49.632;8.346;2022-11-15T10:46:40;13.90;;;6.07;;
19810;SDS011;10065;49.632;8.346;2022-11-15T10:49:13;12.13;;;6.40;;
19810;SDS011;10065;49.632;8.346;2022-11-15T10:51:43;11.97;;;7.07;;
19810;SDS011;10065;49.632;8.346;2022-11-15T10:54:14;12.53;;;7.30;;
19810;SDS011;10065;49.632;8.346;2022-11-15T10:56:48;11.83;;;6.70;;
19810;SDS011;10065;49.632;8.346;2022-11-15T10:59:21;11.53;;;6.03;;
19810;SDS011;10065;49.632;8.346;2022-11-15T11:01:54;10.30;;;6.00;;
19810;SDS011;10065;49.632;8.346;2022-11-15T11:04:22;13.63;;;6.73;;
19810;SDS011;10065;49.632;8.346;2022-11-15T11:06:51;15.20;;;6.33;;
19810;SDS011;10065;49.632;8.346;2022-11-15T11:09:30;12.30;;;7.27;;
19810;SDS011;10065;49.632;8.346;2022-11-15T11:12:00;13.27;;;7.50;;
19810;SDS011;10065;49.632;8.346;2022-11-15T11:14:28;19.03;;;8.63;;
19810;SDS011;10065;49.632;8.346;2022-11-15T11:17:02;10.10;;;6.17;;
19810;SDS011;10065;49.632;8.346;2022-11-15T11:19:43;11.07;;;6.50;;
19810;SDS011;10065;49.632;8.346;2022-11-15T11:22:21;12.20;;;6.63;;
19810;SDS011;10065;49.632;8.346;2022-11-15T11:24:56;10.27;;;6.53;;
19810;SDS011;10065;49.632;8.346;2022-11-15T11:27:42;13.83;;;6.63;;
19810;SDS011;10065;49.632;8.346;2022-11-15T11:30:14;13.17;;;7.27;;
19810;SDS011;10065;49.632;8.346;2022-11-15T11:35:47;11.87;;;6.57;;
19810;SDS011;10065;49.632;8.346;2022-11-15T11:38:39;12.27;;;6.97;;
19810;SDS011;10065;49.632;8.346;2022-11-15T11:41:20;10.03;;;6.60;;
19810;SDS011;10065;49.632;8.346;2022-11-15T11:44:02;11.93;;;6.77;;
19810;SDS011;10065;49.632;8.346;2022-11-15T11:46:47;9.50;;;6.63;;
19810;SDS011;10065;49.632;8.346;2022-11-15T11:49:19;10.80;;;6.27;;
19810;SDS011;10065;49.632;8.346;2022-11-15T11:51:52;14.07;;;6.33;;
19810;SDS011;10065;49.632;8.346;2022-11-15T11:54:25;9.67;;;5.97;;
19810;SDS011;10065;49.632;8.346;2022-11-15T11:57:02;12.00;;;5.90;;
19810;SDS011;10065;49.632;8.346;2022-11-15T11:59:33;10.20;;;6.07;;
19810;SDS011;10065;49.632;8.346;2022-11-15T12:02:10;14.07;;;5.40;;
19810;SDS011;10065;49.632;8.346;2022-11-15T12:04:46;7.93;;;5.20;;
19810;SDS011;10065;49.632;8.346;2022-11-15T12:07:17;12.10;;;5.47;;
19810;SDS011;10065;49.632;8.346;2022-11-15T12:09:52;8.03;;;4.70;;
19810;SDS011;10065;49.632;8.346;2022-11-15T12:12:27;16.03;;;4.37;;
19810;SDS011;10065;49.632;8.346;2022-11-15T12:15:00;8.87;;;3.93;;
19810;SDS011;10065;49.632;8.346;2022-11-15T12:17:31;8.60;;;3.90;;
19810;SDS011;10065;49.632;8.346;2022-11-15T12:20:02;8.83;;;4.57;;
19810;SDS011;10065;49.632;8.346;2022-11-15T12:22:36;8.70;;;4.17;;
19810;SDS011;10065;49.632;8.346;2022-11-15T12:25:13;9.60;;;4.13;;
19810;SDS011;10065;49.632;8.346;2022-11-15T12:27:46;7.40;;;4.23;;
19810;SDS011;10065;49.632;8.346;2022-11-15T12:30:18;8.97;;;4.07;;
19810;SDS011;10065;49.632;8.346;2022-11-15T12:32:52;8.13;;;3.93;;
19810;SDS011;10065;49.632;8.346;2022-11-15T12:35:26;6.57;;;3.63;;
19810;SDS011;10065;49.632;8.346;2022-11-15T12:37:57;8.83;;;3.83;;
19810;SDS011;10065;49.632;8.346;2022-11-15T12:40:29;10.73;;;4.60;;
19810;SDS011;10065;49.632;8.346;2022-11-15T12:43:04;8.37;;;4.13;;
19810;SDS011;10065;49.632;8.346;2022-11-15T12:45:53;9.40;;;4.57;;
19810;SDS011;10065;49.632;8.346;2022-11-15T12:51:16;11.77;;;4.07;;
19810;SDS011;10065;49.632;8.346;2022-11-15T12:53:46;7.90;;;3.90;;
19810;SDS011;10065;49.632;8.346;2022-11-15T12:56:19;8.40;;;4.00;;
19810;SDS011;10065;49.632;8.346;2022-11-15T12:58:55;8.63;;;4.20;;
19810;SDS011;10065;49.632;8.346;2022-11-15T13:04:24;7.67;;;3.63;;
19810;SDS011;10065;49.632;8.346;2022-11-15T13:06:55;9.23;;;3.63;;
19810;SDS011;10065;49.632;8.346;2022-11-15T13:18:33;14.83;;;6.23;;
19810;SDS011;10065;49.632;8.346;2022-11-15T13:21:04;21.63;;;8.90;;
19810;SDS011;10065;49.632;8.346;2022-11-15T13:24:03;31.80;;;11.63;;
19810;SDS011;10065;49.632;8.346;2022-11-15T13:26:38;18.23;;;9.37;;
19810;SDS011;10065;49.632;8.346;2022-11-15T13:29:14;17.13;;;7.20;;
19810;SDS011;10065;49.632;8.346;2022-11-15T13:31:44;25.13;;;6.20;;
19810;SDS011;10065;49.632;8.346;2022-11-15T13:34:20;12.83;;;4.30;;
19810;SDS011;10065;49.632;8.346;2022-11-15T13:37:12;7.07;;;3.67;;
19810;SDS011;10065;49.632;8.346;2022-11-15T13:40:00;10.10;;;3.80;;
19810;SDS011;10065;49.632;8.346;2022-11-15T13:42:43;10.10;;;3.40;;
19810;SDS011;10065;49.632;8.346;2022-11-15T13:45:12;10.57;;;3.43;;
19810;SDS011;10065;49.632;8.346;2022-11-15T13:47:41;6.03;;;2.83;;
19810;SDS011;10065;49.632;8.346;2022-11-15T13:50:10;8.70;;;3.77;;
19810;SDS011;10065;49.632;8.346;2022-11-15T13:52:39;9.23;;;3.60;;
19810;SDS011;10065;49.632;8.346;2022-11-15T13:55:11;6.60;;;2.90;;
19810;SDS011;10065;49.632;8.346;2022-11-15T13:57:41;7.50;;;2.73;;
19810;SDS011;10065;49.632;8.346;2022-11-15T14:00:25;4.63;;;2.80;;
19810;SDS011;10065;49.632;8.346;2022-11-15T14:02:57;6.77;;;3.27;;
19810;SDS011;10065;49.632;8.346;2022-11-15T14:05:34;5.73;;;3.20;;
19810;SDS011;10065;49.632;8.346;2022-11-15T14:08:03;5.40;;;3.10;;
19810;SDS011;10065;49.632;8.346;2022-11-15T14:10:49;11.37;;;3.23;;
19810;SDS011;10065;49.632;8.346;2022-11-15T14:13:33;5.53;;;2.77;;
19810;SDS011;10065;49.632;8.346;2022-11-15T14:16:14;7.10;;;3.10;;
19810;SDS011;10065;49.632;8.346;2022-11-15T14:18:46;12.63;;;3.40;;
19810;SDS011;10065;49.632;8.346;2022-11-15T14:21:15;6.30;;;3.07;;
19810;SDS011;10065;49.632;8.346;2022-11-15T14:23:44;5.67;;;3.40;;
19810;SDS011;10065;49.632;8.346;2022-11-15T14:26:27;6.07;;;3.30;;
19810;SDS011;10065;49.632;8.346;2022-11-15T14:28:55;7.37;;;3.30;;
19810;SDS011;10065;49.632;8.346;2022-11-15T14:31:23;5.37;;;2.87;;
19810;SDS011;10065;49.632;8.346;2022-11-15T14:33:51;8.53;;;3.33;;
19810;SDS011;10065;49.632;8.346;2022-11-15T14:36:19;5.73;;;3.63;;
19810;SDS011;10065;49.632;8.346;2022-11-15T14:38:48;6.30;;;3.77;;
19810;SDS011;10065;49.632;8.346;2022-11-15T14:41:19;8.77;;;4.10;;
19810;SDS011;10065;49.632;8.346;2022-11-15T14:43:50;5.63;;;3.60;;
19810;SDS011;10065;49.632;8.346;2022-11-15T14:46:19;6.37;;;3.40;;
19810;SDS011;10065;49.632;8.346;2022-11-15T14:48:46;7.53;;;4.00;;
19810;SDS011;10065;49.632;8.346;2022-11-15T14:51:15;6.70;;;3.57;;
19810;SDS011;10065;49.632;8.346;2022-11-15T14:53:44;6.77;;;3.27;;
19810;SDS011;10065;49.632;8.346;2022-11-15T14:56:13;7.30;;;3.47;;
19810;SDS011;10065;49.632;8.346;2022-11-15T14:58:42;9.47;;;3.10;;
19810;SDS011;10065;49.632;8.346;2022-11-15T15:01:21;6.83;;;3.80;;
19810;SDS011;10065;49.632;8.346;2022-11-15T15:03:50;5.17;;;3.27;;
19810;SDS011;10065;49.632;8.346;2022-11-15T15:06:20;7.93;;;3.47;;
19810;SDS011;10065;49.632;8.346;2022-11-15T15:08:47;10.77;;;3.77;;
19810;SDS011;10065;49.632;8.346;2022-11-15T15:11:18;10.17;;;4.00;;
19810;SDS011;10065;49.632;8.346;2022-11-15T15:13:49;8.23;;;3.63;;
19810;SDS011;10065;49.632;8.346;2022-11-15T15:16:18;9.33;;;3.30;;
19810;SDS011;10065;49.632;8.346;2022-11-15T15:18:45;6.43;;;3.37;;
19810;SDS011;10065;49.632;8.346;2022-11-15T15:21:17;10.20;;;3.40;;
19810;SDS011;10065;49.632;8.346;2022-11-15T15:23:47;10.07;;;3.77;;
19810;SDS011;10065;49.632;8.346;2022-11-15T15:26:15;7.77;;;3.47;;
19810;SDS011;10065;49.632;8.346;2022-11-15T15:28:43;13.60;;;7.20;;
19810;SDS011;10065;49.632;8.346;2022-11-15T15:31:11;13.33;;;5.97;;
19810;SDS011;10065;49.632;8.346;2022-11-15T15:33:40;10.73;;;4.80;;